createdAt,value
2023-05-09T00:01:52.177Z,4.03
2023-05-09T00:06:54.904Z,3.95
2023-05-09T00:11:57.825Z,4.55
2023-05-09T00:17:01.037Z,4.43
2023-05-09T00:22:03.710Z,4.68
2023-05-09T00:27:06.293Z,4.77
2023-05-09T00:32:09.084Z,4.10
2023-05-09T00:37:11.886Z,3.63
2023-05-09T00:42:15.067Z,3.50
2023-05-09T00:47:17.990Z,4.10
2023-05-09T00:52:23.533Z,4.03
2023-05-09T00:57:26.294Z,3.55
2023-05-09T01:02:29.410Z,4.32
2023-05-09T01:07:50.409Z,4.07
2023-05-09T01:13:04.781Z,4.30
2023-05-09T01:18:31.402Z,4.47
2023-05-09T01:23:39.965Z,4.88
2023-05-09T01:29:20.192Z,4.57
2023-05-09T01:34:27.342Z,4.37
2023-05-09T01:39:33.228Z,4.60
2023-05-09T01:44:42.864Z,5.30
2023-05-09T01:49:47.956Z,5.35
2023-05-09T01:54:51.803Z,4.82
2023-05-09T01:59:55.701Z,5.17
2023-05-09T02:04:58.972Z,4.80
2023-05-09T02:10:03.649Z,5.07
2023-05-09T02:15:08.025Z,4.97
2023-05-09T02:20:16.094Z,5.03
2023-05-09T02:25:18.979Z,5.47
2023-05-09T02:30:25.590Z,4.93
2023-05-09T02:35:29.664Z,4.70
2023-05-09T02:40:33.892Z,5.43
2023-05-09T02:45:36.673Z,5.38
2023-05-09T02:50:42.148Z,6.43
2023-05-09T02:55:45.134Z,5.15
2023-05-09T03:00:47.938Z,5.60
2023-05-09T03:05:50.762Z,5.82
2023-05-09T03:10:53.614Z,5.45
2023-05-09T03:15:56.463Z,5.37
2023-05-09T03:20:59.285Z,6.40
2023-05-09T03:26:03.057Z,6.73
2023-05-09T03:31:06.557Z,5.22
2023-05-09T03:36:09.923Z,6.55
2023-05-09T03:41:17.511Z,7.17
2023-05-09T03:46:22.555Z,6.75
2023-05-09T03:51:26.651Z,7.50
2023-05-09T03:56:31.200Z,6.18
2023-05-09T04:01:34.929Z,6.88
2023-05-09T04:06:39.399Z,6.23
2023-05-09T04:11:44.736Z,8.82
2023-05-09T04:16:48.930Z,7.97
2023-05-09T04:21:51.774Z,7.75
2023-05-09T04:26:54.603Z,8.15
2023-05-09T04:32:00.425Z,4.20
2023-05-09T04:37:03.670Z,6.18
2023-05-09T04:42:07.467Z,7.40
2023-05-09T04:47:10.250Z,5.72
2023-05-09T04:52:13.965Z,7.43
2023-05-09T04:57:18.835Z,7.40
2023-05-09T05:02:27.999Z,7.15
2023-05-09T05:07:31.218Z,8.67
2023-05-09T05:12:34.986Z,8.45
2023-05-09T05:17:38.752Z,7.82
2023-05-09T05:22:43.342Z,8.33
2023-05-09T05:27:46.235Z,9.50
2023-05-09T05:32:49.216Z,10.60
2023-05-09T05:37:55.078Z,10.18
2023-05-09T05:42:58.475Z,9.02
2023-05-09T05:48:03.373Z,8.93
2023-05-09T05:53:07.929Z,8.93
2023-05-09T05:58:11.215Z,8.40
2023-05-09T06:03:14.557Z,9.05
2023-05-09T06:08:22.839Z,6.75
2023-05-09T06:13:25.913Z,5.30
2023-05-09T06:18:40.327Z,6.68
2023-05-09T06:24:01.485Z,6.50
2023-05-09T06:29:09.114Z,5.00
2023-05-09T06:34:12.034Z,3.40
2023-05-09T06:39:15.368Z,4.53
2023-05-09T06:44:18.126Z,4.57
2023-05-09T06:49:20.992Z,4.67
2023-05-09T06:54:24.087Z,4.50
2023-05-09T06:59:27.335Z,4.88
2023-05-09T07:04:30.131Z,5.23
2023-05-09T07:09:33.402Z,4.95
2023-05-09T07:14:36.464Z,3.90
2023-05-09T07:19:39.143Z,2.00
2023-05-09T07:24:41.990Z,3.15
2023-05-09T07:29:44.701Z,3.83
2023-05-09T07:34:47.800Z,3.55
2023-05-09T07:39:50.633Z,4.20
2023-05-09T07:44:53.552Z,2.50
2023-05-09T07:49:56.626Z,3.20
2023-05-09T07:54:59.362Z,2.83
2023-05-09T08:00:02.174Z,4.13
2023-05-09T08:05:16.515Z,3.13
2023-05-09T08:10:19.631Z,2.17
2023-05-09T08:15:23.117Z,2.38
2023-05-09T08:20:25.987Z,3.93
2023-05-09T08:25:29.877Z,2.30
2023-05-09T08:30:32.627Z,3.07
2023-05-09T08:35:35.510Z,3.92
2023-05-09T08:40:38.826Z,3.58
2023-05-09T08:45:52.147Z,3.70
2023-05-09T08:50:56.537Z,3.10
2023-05-09T08:56:04.481Z,2.77
2023-05-09T09:01:08.132Z,2.83
2023-05-09T09:06:11.178Z,3.40
2023-05-09T09:11:15.282Z,3.60
2023-05-09T09:16:22.934Z,3.00
2023-05-09T09:21:25.850Z,2.23
2023-05-09T09:26:32.029Z,2.65
2023-05-09T09:31:35.076Z,3.30
2023-05-09T09:36:37.921Z,3.00
2023-05-09T09:41:42.650Z,2.90
2023-05-09T09:46:48.714Z,2.80
2023-05-09T09:51:52.358Z,3.58
2023-05-09T09:56:56.859Z,2.25
2023-05-09T10:02:12.828Z,1.73
2023-05-09T10:07:15.948Z,2.30
2023-05-09T10:12:21.047Z,3.20
2023-05-09T10:17:25.496Z,2.60
2023-05-09T10:22:29.804Z,2.40
2023-05-09T10:27:35.585Z,2.50
2023-05-09T10:32:50.426Z,2.65
2023-05-09T10:37:57.424Z,2.37
2023-05-09T10:43:00.239Z,2.40
2023-05-09T10:48:04.574Z,2.30
2023-05-09T10:53:11.549Z,1.87
2023-05-09T10:58:32.335Z,2.90
2023-05-09T11:03:55.184Z,2.50
2023-05-09T11:08:58.157Z,2.33
2023-05-09T11:14:01.201Z,2.42
2023-05-09T11:19:06.290Z,2.77
2023-05-09T11:24:17.588Z,3.00
2023-05-09T11:29:20.455Z,2.90
2023-05-09T11:34:23.508Z,2.72
2023-05-09T11:39:26.749Z,2.78
2023-05-09T11:44:32.018Z,2.80
2023-05-09T11:49:34.812Z,2.65
2023-05-09T11:54:39.775Z,2.33
2023-05-09T11:59:42.935Z,1.98
2023-05-09T12:04:45.825Z,2.03
2023-05-09T12:09:50.706Z,2.33
2023-05-09T12:14:53.533Z,1.60
2023-05-09T12:20:00.319Z,2.60
2023-05-09T12:25:07.705Z,1.90
2023-05-09T12:30:14.256Z,2.53
2023-05-09T12:35:17.362Z,1.60
2023-05-09T12:40:20.256Z,1.77
2023-05-09T12:45:23.416Z,2.07
2023-05-09T12:50:35.193Z,1.90
2023-05-09T12:55:41.914Z,1.88
2023-05-09T13:00:46.336Z,2.00
2023-05-09T13:05:59.498Z,2.00
2023-05-09T13:11:14.794Z,2.40
2023-05-09T13:16:18.899Z,1.70
2023-05-09T13:21:22.093Z,1.40
2023-05-09T13:26:25.675Z,2.20
2023-05-09T13:31:28.757Z,2.40
2023-05-09T13:36:32.874Z,2.10
2023-05-09T13:41:38.018Z,2.10
2023-05-09T13:46:41.150Z,1.20
2023-05-09T13:51:44.825Z,2.00
2023-05-09T13:56:47.753Z,1.02
2023-05-09T14:01:51.096Z,1.90
2023-05-09T14:06:55.166Z,1.60
2023-05-09T14:11:58.055Z,2.13
2023-05-09T14:17:01.688Z,2.70
2023-05-09T14:22:04.785Z,2.20
2023-05-09T14:27:07.608Z,2.10
2023-05-09T14:32:15.169Z,2.00
2023-05-09T14:37:18.071Z,1.75
2023-05-09T14:42:20.891Z,2.00
2023-05-09T14:47:23.810Z,1.90
2023-05-09T14:52:26.768Z,2.00
2023-05-09T14:57:29.756Z,1.80
2023-05-09T15:02:32.831Z,2.00
2023-05-09T15:07:36.227Z,1.60
2023-05-09T15:12:39.074Z,1.55
2023-05-09T15:17:41.938Z,2.10
2023-05-09T15:22:46.387Z,1.92
2023-05-09T15:27:52.487Z,1.77
2023-05-09T15:32:55.306Z,1.90
2023-05-09T15:37:58.453Z,1.83
2023-05-09T15:43:07.991Z,2.03
2023-05-09T15:48:14.982Z,1.92
2023-05-09T15:53:18.172Z,2.22
2023-05-09T15:58:20.917Z,1.63
2023-05-09T16:03:25.543Z,2.30
2023-05-09T16:08:28.603Z,2.03
2023-05-09T16:13:32.458Z,2.00
2023-05-09T16:18:36.977Z,2.35
2023-05-09T16:23:39.931Z,1.80
2023-05-09T16:28:42.817Z,2.25
2023-05-09T16:33:47.340Z,1.90
2023-05-09T16:38:50.320Z,1.83
2023-05-09T16:43:53.599Z,1.60
2023-05-09T16:48:56.518Z,1.70
2023-05-09T16:53:59.644Z,2.00
2023-05-09T16:59:03.108Z,1.97
2023-05-09T17:04:07.133Z,2.20
2023-05-09T17:09:10.248Z,2.00
2023-05-09T17:14:12.956Z,1.73
2023-05-09T17:19:16.840Z,1.38
2023-05-09T17:24:19.653Z,1.83
2023-05-09T17:29:22.960Z,2.30
2023-05-09T17:34:25.914Z,2.22
2023-05-09T17:39:28.955Z,2.13
2023-05-09T17:44:31.924Z,2.10
2023-05-09T17:49:34.642Z,2.53
2023-05-09T17:54:37.749Z,2.20
2023-05-09T17:59:41.830Z,2.45
2023-05-09T18:04:45.521Z,2.90
2023-05-09T18:09:48.504Z,2.67
2023-05-09T18:14:52.692Z,2.93
2023-05-09T18:19:55.613Z,2.58
2023-05-09T18:24:58.739Z,2.45
2023-05-09T18:30:01.641Z,2.47
2023-05-09T18:35:05.710Z,2.53
2023-05-09T18:40:15.030Z,3.10
2023-05-09T18:45:18.507Z,2.80
2023-05-09T18:50:21.297Z,2.85
2023-05-09T18:55:24.314Z,3.30
2023-05-09T19:00:27.488Z,2.97
2023-05-09T19:05:30.301Z,3.73
2023-05-09T19:10:34.083Z,3.38
2023-05-09T19:15:37.160Z,3.90
2023-05-09T19:20:51.890Z,3.67
2023-05-09T19:25:55.065Z,2.53
2023-05-09T19:30:57.954Z,3.03
2023-05-09T19:36:00.772Z,3.65
2023-05-09T19:41:03.721Z,2.75
2023-05-09T19:46:06.660Z,2.70
2023-05-09T19:51:12.510Z,2.80
2023-05-09T19:56:15.368Z,2.40
2023-05-09T20:01:19.376Z,3.17
2023-05-09T20:06:34.794Z,3.13
2023-05-09T20:11:37.493Z,3.13
2023-05-09T20:16:42.500Z,3.80
2023-05-09T20:21:45.620Z,2.50
2023-05-09T20:26:48.449Z,3.40
2023-05-09T20:31:51.375Z,3.63
2023-05-09T20:36:55.275Z,2.70
2023-05-09T20:42:02.623Z,2.40
2023-05-09T20:47:06.156Z,3.00
2023-05-09T20:52:08.947Z,2.33
2023-05-09T20:57:11.823Z,2.80
2023-05-09T21:02:15.202Z,3.53
2023-05-09T21:07:21.939Z,3.10
2023-05-09T21:12:25.379Z,3.13
2023-05-09T21:17:28.785Z,3.08
2023-05-09T21:22:31.779Z,3.70
2023-05-09T21:27:34.530Z,3.50
2023-05-09T21:32:37.533Z,3.30
2023-05-09T21:37:40.376Z,3.67
2023-05-09T21:42:44.428Z,3.53
2023-05-09T21:47:47.355Z,3.45
2023-05-09T21:52:50.387Z,3.73
2023-05-09T21:57:53.106Z,3.55
2023-05-09T22:02:55.995Z,3.30
2023-05-09T22:07:58.662Z,3.72
2023-05-09T22:13:01.420Z,3.95
2023-05-09T22:18:04.250Z,3.97
2023-05-09T22:23:07.165Z,3.83
2023-05-09T22:28:09.916Z,3.73
2023-05-09T22:33:12.687Z,3.70
2023-05-09T22:38:15.555Z,3.95
2023-05-09T22:43:18.258Z,4.47
2023-05-09T22:48:20.892Z,4.00
2023-05-09T22:53:23.584Z,4.83
2023-05-09T22:58:26.748Z,3.72
2023-05-09T23:03:29.709Z,4.38
2023-05-09T23:08:33.437Z,3.97
2023-05-09T23:13:36.080Z,4.25
2023-05-09T23:18:38.754Z,4.57
2023-05-09T23:23:41.582Z,4.30
2023-05-09T23:28:44.490Z,4.20
2023-05-09T23:33:47.262Z,3.40
2023-05-09T23:38:49.943Z,4.05
2023-05-09T23:43:52.572Z,4.40
2023-05-09T23:48:55.674Z,3.83
2023-05-09T23:53:58.452Z,3.60
2023-05-09T23:59:01.230Z,3.77
